sensor_id;sensor_type;location;lat;lon;timestamp;temperature;humidity
2611;DHT22;5612;51.134;17.058;2024-02-28T00:00:49;8.70;99.90
2611;DHT22;5612;51.134;17.058;2024-02-28T00:03:19;8.70;1.00
2611;DHT22;5612;51.134;17.058;2024-02-28T00:05:49;8.70;99.90
2611;DHT22;5612;51.134;17.058;2024-02-28T00:08:18;8.60;99.90
2611;DHT22;5612;51.134;17.058;2024-02-28T00:10:47;8.50;1.00
2611;DHT22;5612;51.134;17.058;2024-02-28T00:13:16;8.60;1.00
2611;DHT22;5612;51.134;17.058;2024-02-28T00:15:49;8.50;1.00
2611;DHT22;5612;51.134;17.058;2024-02-28T00:18:18;8.50;1.00
2611;DHT22;5612;51.134;17.058;2024-02-28T00:20:47;8.40;1.00
2611;DHT22;5612;51.134;17.058;2024-02-28T00:23:16;8.30;1.00
2611;DHT22;5612;51.134;17.058;2024-02-28T00:25:45;8.30;1.00
2611;DHT22;5612;51.134;17.058;2024-02-28T00:28:13;8.20;1.00
2611;DHT22;5612;51.134;17.058;2024-02-28T00:30:42;8.40;1.00
2611;DHT22;5612;51.134;17.058;2024-02-28T00:33:13;8.50;1.00
2611;DHT22;5612;51.134;17.058;2024-02-28T00:35:42;8.40;1.00
2611;DHT22;5612;51.134;17.058;2024-02-28T00:38:11;8.40;1.00
2611;DHT22;5612;51.134;17.058;2024-02-28T00:40:40;8.40;1.00
2611;DHT22;5612;51.134;17.058;2024-02-28T00:43:08;8.50;1.00
2611;DHT22;5612;51.134;17.058;2024-02-28T00:45:37;8.40;1.00
2611;DHT22;5612;51.134;17.058;2024-02-28T00:48:07;8.50;1.00
2611;DHT22;5612;51.134;17.058;2024-02-28T00:50:37;8.40;1.00
2611;DHT22;5612;51.134;17.058;2024-02-28T00:53:06;8.50;1.00
2611;DHT22;5612;51.134;17.058;2024-02-28T00:55:35;8.40;1.00
2611;DHT22;5612;51.134;17.058;2024-02-28T00:58:04;8.50;1.00
2611;DHT22;5612;51.134;17.058;2024-02-28T01:00:33;8.50;1.00
2611;DHT22;5612;51.134;17.058;2024-02-28T01:03:02;8.50;1.00
2611;DHT22;5612;51.134;17.058;2024-02-28T01:05:32;8.40;1.00
2611;DHT22;5612;51.134;17.058;2024-02-28T01:08:03;8.50;1.00
2611;DHT22;5612;51.134;17.058;2024-02-28T01:10:33;8.50;1.00
2611;DHT22;5612;51.134;17.058;2024-02-28T01:13:02;8.40;1.00
2611;DHT22;5612;51.134;17.058;2024-02-28T01:15:31;8.50;1.00
2611;DHT22;5612;51.134;17.058;2024-02-28T01:18:00;8.30;1.00
2611;DHT22;5612;51.134;17.058;2024-02-28T01:20:29;8.30;1.00
2611;DHT22;5612;51.134;17.058;2024-02-28T01:22:58;8.30;13.40
2611;DHT22;5612;51.134;17.058;2024-02-28T01:25:28;8.30;28.40
2611;DHT22;5612;51.134;17.058;2024-02-28T01:27:57;8.40;12.70
2611;DHT22;5612;51.134;17.058;2024-02-28T01:30:26;8.30;24.70
2611;DHT22;5612;51.134;17.058;2024-02-28T01:32:55;8.20;76.00
2611;DHT22;5612;51.134;17.058;2024-02-28T01:35:24;8.10;96.10
2611;DHT22;5612;51.134;17.058;2024-02-28T01:37:53;8.00;99.90
2611;DHT22;5612;51.134;17.058;2024-02-28T01:40:22;8.20;99.90
2611;DHT22;5612;51.134;17.058;2024-02-28T01:42:52;8.20;99.90
2611;DHT22;5612;51.134;17.058;2024-02-28T01:45:22;8.20;99.90
2611;DHT22;5612;51.134;17.058;2024-02-28T01:47:51;8.30;99.90
2611;DHT22;5612;51.134;17.058;2024-02-28T01:50:20;8.40;99.90
2611;DHT22;5612;51.134;17.058;2024-02-28T01:52:49;8.40;90.00
2611;DHT22;5612;51.134;17.058;2024-02-28T01:55:18;8.30;95.40
2611;DHT22;5612;51.134;17.058;2024-02-28T01:57:47;8.20;99.90
2611;DHT22;5612;51.134;17.058;2024-02-28T02:00:18;8.10;99.90
2611;DHT22;5612;51.134;17.058;2024-02-28T02:02:47;8.30;99.90
2611;DHT22;5612;51.134;17.058;2024-02-28T02:05:16;8.20;99.90
2611;DHT22;5612;51.134;17.058;2024-02-28T02:07:48;8.20;99.90
2611;DHT22;5612;51.134;17.058;2024-02-28T02:10:18;8.30;99.90
2611;DHT22;5612;51.134;17.058;2024-02-28T02:12:46;8.30;99.90
2611;DHT22;5612;51.134;17.058;2024-02-28T02:15:17;8.30;99.90
2611;DHT22;5612;51.134;17.058;2024-02-28T02:17:46;8.30;99.90
2611;DHT22;5612;51.134;17.058;2024-02-28T02:20:15;8.30;99.90
2611;DHT22;5612;51.134;17.058;2024-02-28T02:22:45;8.40;99.90
2611;DHT22;5612;51.134;17.058;2024-02-28T02:25:14;8.40;99.90
2611;DHT22;5612;51.134;17.058;2024-02-28T02:27:43;8.30;99.90
2611;DHT22;5612;51.134;17.058;2024-02-28T02:30:12;8.30;99.90
2611;DHT22;5612;51.134;17.058;2024-02-28T02:32:42;8.40;99.90
2611;DHT22;5612;51.134;17.058;2024-02-28T02:35:10;8.40;99.90
2611;DHT22;5612;51.134;17.058;2024-02-28T02:37:45;8.40;99.90
2611;DHT22;5612;51.134;17.058;2024-02-28T02:40:15;8.40;99.90
2611;DHT22;5612;51.134;17.058;2024-02-28T02:42:44;8.40;99.90
2611;DHT22;5612;51.134;17.058;2024-02-28T02:45:14;8.40;99.90
2611;DHT22;5612;51.134;17.058;2024-02-28T02:47:43;8.40;99.90
2611;DHT22;5612;51.134;17.058;2024-02-28T02:50:12;8.50;99.90
2611;DHT22;5612;51.134;17.058;2024-02-28T02:52:41;8.40;99.90
2611;DHT22;5612;51.134;17.058;2024-02-28T02:55:11;8.40;99.90
2611;DHT22;5612;51.134;17.058;2024-02-28T02:57:40;8.40;99.90
2611;DHT22;5612;51.134;17.058;2024-02-28T03:00:10;8.50;99.90
2611;DHT22;5612;51.134;17.058;2024-02-28T03:02:40;8.50;99.90
2611;DHT22;5612;51.134;17.058;2024-02-28T03:05:09;8.40;99.90
2611;DHT22;5612;51.134;17.058;2024-02-28T03:07:37;8.40;99.90
2611;DHT22;5612;51.134;17.058;2024-02-28T03:10:07;8.40;99.90
2611;DHT22;5612;51.134;17.058;2024-02-28T03:12:39;8.50;99.90
2611;DHT22;5612;51.134;17.058;2024-02-28T03:15:09;8.40;99.90
2611;DHT22;5612;51.134;17.058;2024-02-28T03:17:38;8.40;99.90
2611;DHT22;5612;51.134;17.058;2024-02-28T03:20:07;8.30;99.90
2611;DHT22;5612;51.134;17.058;2024-02-28T03:22:37;8.40;99.90
2611;DHT22;5612;51.134;17.058;2024-02-28T03:25:06;8.40;99.90
2611;DHT22;5612;51.134;17.058;2024-02-28T03:27:35;8.40;99.90
2611;DHT22;5612;51.134;17.058;2024-02-28T03:30:07;8.50;99.90
2611;DHT22;5612;51.134;17.058;2024-02-28T03:32:36;8.50;99.90
2611;DHT22;5612;51.134;17.058;2024-02-28T03:35:05;8.60;99.90
2611;DHT22;5612;51.134;17.058;2024-02-28T03:37:36;8.70;99.90
2611;DHT22;5612;51.134;17.058;2024-02-28T03:40:06;8.60;99.90
2611;DHT22;5612;51.134;17.058;2024-02-28T03:42:35;8.50;99.90
2611;DHT22;5612;51.134;17.058;2024-02-28T03:45:06;8.40;99.90
2611;DHT22;5612;51.134;17.058;2024-02-28T03:47:35;8.30;99.90
2611;DHT22;5612;51.134;17.058;2024-02-28T03:50:05;8.30;99.90
2611;DHT22;5612;51.134;17.058;2024-02-28T03:52:34;8.20;99.90
2611;DHT22;5612;51.134;17.058;2024-02-28T03:55:04;8.20;99.90
2611;DHT22;5612;51.134;17.058;2024-02-28T03:57:33;8.20;99.90
2611;DHT22;5612;51.134;17.058;2024-02-28T04:00:02;8.10;99.90
2611;DHT22;5612;51.134;17.058;2024-02-28T04:02:33;8.10;99.90
2611;DHT22;5612;51.134;17.058;2024-02-28T04:05:02;8.00;99.90
2611;DHT22;5612;51.134;17.058;2024-02-28T04:07:31;8.00;99.90
2611;DHT22;5612;51.134;17.058;2024-02-28T04:10:01;7.90;99.90
2611;DHT22;5612;51.134;17.058;2024-02-28T04:12:32;7.90;99.90
2611;DHT22;5612;51.134;17.058;2024-02-28T04:15:01;7.90;99.90
2611;DHT22;5612;51.134;17.058;2024-02-28T04:17:30;7.90;99.90
2611;DHT22;5612;51.134;17.058;2024-02-28T04:20:01;7.90;99.90
2611;DHT22;5612;51.134;17.058;2024-02-28T04:22:31;7.90;99.90
2611;DHT22;5612;51.134;17.058;2024-02-28T04:25:00;7.90;99.90
2611;DHT22;5612;51.134;17.058;2024-02-28T04:27:30;7.90;99.90
2611;DHT22;5612;51.134;17.058;2024-02-28T04:29:59;7.80;99.90
2611;DHT22;5612;51.134;17.058;2024-02-28T04:32:28;7.80;99.90
2611;DHT22;5612;51.134;17.058;2024-02-28T04:34:57;7.90;99.90
2611;DHT22;5612;51.134;17.058;2024-02-28T04:37:27;7.90;99.90
2611;DHT22;5612;51.134;17.058;2024-02-28T04:39:56;7.80;99.90
2611;DHT22;5612;51.134;17.058;2024-02-28T04:42:25;7.90;99.90
2611;DHT22;5612;51.134;17.058;2024-02-28T04:44:54;7.80;99.90
2611;DHT22;5612;51.134;17.058;2024-02-28T04:47:22;7.70;99.90
2611;DHT22;5612;51.134;17.058;2024-02-28T04:50:02;7.70;99.90
2611;DHT22;5612;51.134;17.058;2024-02-28T04:52:34;7.60;99.90
2611;DHT22;5612;51.134;17.058;2024-02-28T04:55:04;7.70;99.90
2611;DHT22;5612;51.134;17.058;2024-02-28T04:57:33;7.70;99.90
2611;DHT22;5612;51.134;17.058;2024-02-28T05:00:02;7.80;99.90
2611;DHT22;5612;51.134;17.058;2024-02-28T05:02:32;7.90;99.90
2611;DHT22;5612;51.134;17.058;2024-02-28T05:05:01;7.90;99.90
2611;DHT22;5612;51.134;17.058;2024-02-28T05:07:30;7.90;99.90
2611;DHT22;5612;51.134;17.058;2024-02-28T05:10:00;7.90;99.90
2611;DHT22;5612;51.134;17.058;2024-02-28T05:12:30;7.90;99.90
2611;DHT22;5612;51.134;17.058;2024-02-28T05:14:59;7.90;99.90
2611;DHT22;5612;51.134;17.058;2024-02-28T05:17:28;8.00;99.90
2611;DHT22;5612;51.134;17.058;2024-02-28T05:19:57;8.00;99.90
2611;DHT22;5612;51.134;17.058;2024-02-28T05:22:26;8.00;99.90
2611;DHT22;5612;51.134;17.058;2024-02-28T05:24:55;8.10;99.90
2611;DHT22;5612;51.134;17.058;2024-02-28T05:27:25;8.10;99.90
2611;DHT22;5612;51.134;17.058;2024-02-28T05:29:55;8.10;99.90
2611;DHT22;5612;51.134;17.058;2024-02-28T05:32:23;8.00;99.90
2611;DHT22;5612;51.134;17.058;2024-02-28T05:34:52;7.90;99.90
2611;DHT22;5612;51.134;17.058;2024-02-28T05:37:21;7.90;99.90
2611;DHT22;5612;51.134;17.058;2024-02-28T05:39:50;7.90;99.90
2611;DHT22;5612;51.134;17.058;2024-02-28T05:42:20;7.90;99.90
2611;DHT22;5612;51.134;17.058;2024-02-28T05:44:52;7.90;99.90
2611;DHT22;5612;51.134;17.058;2024-02-28T05:47:21;8.00;99.90
2611;DHT22;5612;51.134;17.058;2024-02-28T05:49:51;8.00;99.90
2611;DHT22;5612;51.134;17.058;2024-02-28T05:52:23;8.00;99.90
2611;DHT22;5612;51.134;17.058;2024-02-28T05:54:52;7.90;99.90
2611;DHT22;5612;51.134;17.058;2024-02-28T05:57:22;8.00;99.90
2611;DHT22;5612;51.134;17.058;2024-02-28T05:59:52;8.10;99.90
2611;DHT22;5612;51.134;17.058;2024-02-28T06:02:21;8.20;99.90
2611;DHT22;5612;51.134;17.058;2024-02-28T06:04:50;8.10;99.90
2611;DHT22;5612;51.134;17.058;2024-02-28T06:07:20;8.10;99.90
2611;DHT22;5612;51.134;17.058;2024-02-28T06:09:49;8.10;99.90
2611;DHT22;5612;51.134;17.058;2024-02-28T06:12:18;8.10;99.90
2611;DHT22;5612;51.134;17.058;2024-02-28T06:14:48;8.00;99.90
2611;DHT22;5612;51.134;17.058;2024-02-28T06:17:18;8.10;99.90
2611;DHT22;5612;51.134;17.058;2024-02-28T06:19:48;8.10;99.90
2611;DHT22;5612;51.134;17.058;2024-02-28T06:22:17;8.10;99.90
2611;DHT22;5612;51.134;17.058;2024-02-28T06:24:46;8.10;99.90
2611;DHT22;5612;51.134;17.058;2024-02-28T06:27:16;8.10;99.90
2611;DHT22;5612;51.134;17.058;2024-02-28T06:29:45;8.10;99.90
2611;DHT22;5612;51.134;17.058;2024-02-28T06:32:13;8.20;99.90
2611;DHT22;5612;51.134;17.058;2024-02-28T06:34:44;8.20;99.90
2611;DHT22;5612;51.134;17.058;2024-02-28T06:37:13;8.10;99.90
2611;DHT22;5612;51.134;17.058;2024-02-28T06:39:42;8.30;99.90
2611;DHT22;5612;51.134;17.058;2024-02-28T06:42:11;8.40;99.90
2611;DHT22;5612;51.134;17.058;2024-02-28T06:44:40;8.50;99.90
2611;DHT22;5612;51.134;17.058;2024-02-28T06:47:09;8.50;99.90
2611;DHT22;5612;51.134;17.058;2024-02-28T06:49:38;8.60;99.90
2611;DHT22;5612;51.134;17.058;2024-02-28T06:52:08;8.50;99.90
2611;DHT22;5612;51.134;17.058;2024-02-28T06:54:37;8.50;99.90
2611;DHT22;5612;51.134;17.058;2024-02-28T06:57:06;8.40;99.90
2611;DHT22;5612;51.134;17.058;2024-02-28T06:59:35;8.30;99.90
2611;DHT22;5612;51.134;17.058;2024-02-28T07:02:05;8.30;99.90
2611;DHT22;5612;51.134;17.058;2024-02-28T07:04:34;8.20;99.90
2611;DHT22;5612;51.134;17.058;2024-02-28T07:07:03;8.20;99.90
2611;DHT22;5612;51.134;17.058;2024-02-28T07:09:34;8.30;99.90
2611;DHT22;5612;51.134;17.058;2024-02-28T07:12:03;8.50;99.90
2611;DHT22;5612;51.134;17.058;2024-02-28T07:14:32;8.50;99.90
2611;DHT22;5612;51.134;17.058;2024-02-28T07:17:01;8.60;99.90
2611;DHT22;5612;51.134;17.058;2024-02-28T07:19:30;8.80;99.90
2611;DHT22;5612;51.134;17.058;2024-02-28T07:21:59;8.90;99.90
2611;DHT22;5612;51.134;17.058;2024-02-28T07:24:28;8.90;99.90
2611;DHT22;5612;51.134;17.058;2024-02-28T07:26:59;9.00;99.90
2611;DHT22;5612;51.134;17.058;2024-02-28T07:29:28;9.00;99.90
2611;DHT22;5612;51.134;17.058;2024-02-28T07:31:57;9.00;99.90
2611;DHT22;5612;51.134;17.058;2024-02-28T07:34:25;8.90;99.90
2611;DHT22;5612;51.134;17.058;2024-02-28T07:36:54;9.00;99.90
2611;DHT22;5612;51.134;17.058;2024-02-28T07:39:24;9.00;99.90
2611;DHT22;5612;51.134;17.058;2024-02-28T07:41:54;9.10;99.90
2611;DHT22;5612;51.134;17.058;2024-02-28T07:44:25;9.20;99.90
2611;DHT22;5612;51.134;17.058;2024-02-28T07:46:58;9.20;99.90
2611;DHT22;5612;51.134;17.058;2024-02-28T07:49:27;9.30;99.90
2611;DHT22;5612;51.134;17.058;2024-02-28T07:51:56;9.30;99.90
2611;DHT22;5612;51.134;17.058;2024-02-28T07:54:25;9.30;99.90
2611;DHT22;5612;51.134;17.058;2024-02-28T07:56:54;9.20;99.90
2611;DHT22;5612;51.134;17.058;2024-02-28T07:59:25;9.20;99.90
2611;DHT22;5612;51.134;17.058;2024-02-28T08:01:54;9.30;99.90
2611;DHT22;5612;51.134;17.058;2024-02-28T08:04:23;9.40;99.90
2611;DHT22;5612;51.134;17.058;2024-02-28T08:06:52;9.40;99.90
2611;DHT22;5612;51.134;17.058;2024-02-28T08:09:21;9.30;99.90
2611;DHT22;5612;51.134;17.058;2024-02-28T08:11:50;9.30;99.90
2611;DHT22;5612;51.134;17.058;2024-02-28T08:14:20;9.40;99.90
2611;DHT22;5612;51.134;17.058;2024-02-28T08:16:51;9.50;99.90
2611;DHT22;5612;51.134;17.058;2024-02-28T08:19:20;9.40;99.90
2611;DHT22;5612;51.134;17.058;2024-02-28T08:21:49;9.30;99.90
2611;DHT22;5612;51.134;17.058;2024-02-28T08:24:18;9.40;99.90
2611;DHT22;5612;51.134;17.058;2024-02-28T08:26:47;9.40;99.90
2611;DHT22;5612;51.134;17.058;2024-02-28T08:29:16;9.20;99.90
2611;DHT22;5612;51.134;17.058;2024-02-28T08:31:46;9.10;99.90
2611;DHT22;5612;51.134;17.058;2024-02-28T08:34:17;9.10;99.90
2611;DHT22;5612;51.134;17.058;2024-02-28T08:36:46;9.10;99.90
2611;DHT22;5612;51.134;17.058;2024-02-28T08:39:15;9.20;99.90
2611;DHT22;5612;51.134;17.058;2024-02-28T08:41:44;9.00;99.90
2611;DHT22;5612;51.134;17.058;2024-02-28T08:44:13;8.90;99.90
2611;DHT22;5612;51.134;17.058;2024-02-28T08:46:42;8.90;99.90
2611;DHT22;5612;51.134;17.058;2024-02-28T08:49:11;8.80;99.90
2611;DHT22;5612;51.134;17.058;2024-02-28T08:51:41;8.80;99.90
2611;DHT22;5612;51.134;17.058;2024-02-28T08:54:11;9.00;99.90
2611;DHT22;5612;51.134;17.058;2024-02-28T08:56:40;9.10;99.90
2611;DHT22;5612;51.134;17.058;2024-02-28T08:59:22;9.00;99.90
2611;DHT22;5612;51.134;17.058;2024-02-28T09:01:51;8.90;99.90
2611;DHT22;5612;51.134;17.058;2024-02-28T09:04:20;8.80;99.90
2611;DHT22;5612;51.134;17.058;2024-02-28T09:06:50;8.80;99.90
2611;DHT22;5612;51.134;17.058;2024-02-28T09:09:20;8.80;99.90
2611;DHT22;5612;51.134;17.058;2024-02-28T09:11:49;9.00;99.90
2611;DHT22;5612;51.134;17.058;2024-02-28T09:14:18;8.90;99.90
2611;DHT22;5612;51.134;17.058;2024-02-28T09:16:47;8.80;99.90
2611;DHT22;5612;51.134;17.058;2024-02-28T09:19:16;8.90;99.90
2611;DHT22;5612;51.134;17.058;2024-02-28T09:21:45;8.80;99.90
2611;DHT22;5612;51.134;17.058;2024-02-28T09:24:16;8.80;99.90
2611;DHT22;5612;51.134;17.058;2024-02-28T09:26:45;8.80;99.90
2611;DHT22;5612;51.134;17.058;2024-02-28T09:29:14;8.90;99.90
2611;DHT22;5612;51.134;17.058;2024-02-28T09:31:43;9.10;99.90
2611;DHT22;5612;51.134;17.058;2024-02-28T09:34:12;9.10;99.90
2611;DHT22;5612;51.134;17.058;2024-02-28T09:36:41;8.90;99.90
2611;DHT22;5612;51.134;17.058;2024-02-28T09:39:18;9.00;99.90
2611;DHT22;5612;51.134;17.058;2024-02-28T09:41:49;9.10;99.90
2611;DHT22;5612;51.134;17.058;2024-02-28T09:44:18;9.00;99.90
2611;DHT22;5612;51.134;17.058;2024-02-28T09:46:51;8.80;99.90
2611;DHT22;5612;51.134;17.058;2024-02-28T09:49:20;8.70;99.90
2611;DHT22;5612;51.134;17.058;2024-02-28T09:51:51;8.70;99.90
2611;DHT22;5612;51.134;17.058;2024-02-28T09:54:22;8.70;99.90
2611;DHT22;5612;51.134;17.058;2024-02-28T09:56:51;8.80;99.90
2611;DHT22;5612;51.134;17.058;2024-02-28T09:59:21;8.80;99.90
2611;DHT22;5612;51.134;17.058;2024-02-28T10:02:03;9.00;99.90
2611;DHT22;5612;51.134;17.058;2024-02-28T10:04:33;9.10;99.90
2611;DHT22;5612;51.134;17.058;2024-02-28T10:07:10;9.30;99.90
2611;DHT22;5612;51.134;17.058;2024-02-28T10:09:42;9.40;99.90
2611;DHT22;5612;51.134;17.058;2024-02-28T10:12:11;9.30;99.90
2611;DHT22;5612;51.134;17.058;2024-02-28T10:14:40;9.20;99.90
2611;DHT22;5612;51.134;17.058;2024-02-28T10:17:09;9.20;99.90
2611;DHT22;5612;51.134;17.058;2024-02-28T10:19:38;9.20;99.90
2611;DHT22;5612;51.134;17.058;2024-02-28T10:22:09;9.10;99.90
2611;DHT22;5612;51.134;17.058;2024-02-28T10:24:38;9.10;99.90
2611;DHT22;5612;51.134;17.058;2024-02-28T10:27:09;9.10;99.90
2611;DHT22;5612;51.134;17.058;2024-02-28T10:29:39;9.00;99.90
2611;DHT22;5612;51.134;17.058;2024-02-28T10:32:10;9.10;99.90
2611;DHT22;5612;51.134;17.058;2024-02-28T10:34:40;9.00;99.90
2611;DHT22;5612;51.134;17.058;2024-02-28T10:37:10;9.00;99.90
2611;DHT22;5612;51.134;17.058;2024-02-28T10:39:39;8.90;99.90
2611;DHT22;5612;51.134;17.058;2024-02-28T10:42:11;8.90;99.90
2611;DHT22;5612;51.134;17.058;2024-02-28T10:44:42;8.80;99.90
2611;DHT22;5612;51.134;17.058;2024-02-28T10:47:11;8.50;99.90
2611;DHT22;5612;51.134;17.058;2024-02-28T10:49:42;8.60;99.90
2611;DHT22;5612;51.134;17.058;2024-02-28T10:52:12;8.60;99.90
2611;DHT22;5612;51.134;17.058;2024-02-28T10:54:44;8.40;99.90
2611;DHT22;5612;51.134;17.058;2024-02-28T10:57:18;8.30;99.90
2611;DHT22;5612;51.134;17.058;2024-02-28T10:59:47;8.30;99.90
2611;DHT22;5612;51.134;17.058;2024-02-28T11:02:17;8.30;99.90
2611;DHT22;5612;51.134;17.058;2024-02-28T11:04:46;8.20;99.90
2611;DHT22;5612;51.134;17.058;2024-02-28T11:07:20;8.20;99.90
2611;DHT22;5612;51.134;17.058;2024-02-28T11:09:54;8.30;99.90
2611;DHT22;5612;51.134;17.058;2024-02-28T11:12:26;8.30;99.90
2611;DHT22;5612;51.134;17.058;2024-02-28T11:14:57;8.30;99.90
2611;DHT22;5612;51.134;17.058;2024-02-28T11:17:27;8.30;99.90
2611;DHT22;5612;51.134;17.058;2024-02-28T11:19:56;8.20;99.90
2611;DHT22;5612;51.134;17.058;2024-02-28T11:22:28;8.10;99.90
2611;DHT22;5612;51.134;17.058;2024-02-28T11:24:57;8.00;99.90
2611;DHT22;5612;51.134;17.058;2024-02-28T11:27:27;8.00;99.90
2611;DHT22;5612;51.134;17.058;2024-02-28T11:29:56;8.00;99.90
2611;DHT22;5612;51.134;17.058;2024-02-28T11:32:25;8.30;99.90
2611;DHT22;5612;51.134;17.058;2024-02-28T11:34:54;8.20;99.90
2611;DHT22;5612;51.134;17.058;2024-02-28T11:37:23;8.20;99.90
2611;DHT22;5612;51.134;17.058;2024-02-28T11:39:52;8.20;99.90
2611;DHT22;5612;51.134;17.058;2024-02-28T11:42:22;8.20;99.90
2611;DHT22;5612;51.134;17.058;2024-02-28T11:44:55;8.20;99.90
2611;DHT22;5612;51.134;17.058;2024-02-28T11:47:28;8.20;99.90
2611;DHT22;5612;51.134;17.058;2024-02-28T11:49:58;8.10;99.90
2611;DHT22;5612;51.134;17.058;2024-02-28T11:52:28;8.30;99.90
2611;DHT22;5612;51.134;17.058;2024-02-28T11:54:59;8.30;99.90
2611;DHT22;5612;51.134;17.058;2024-02-28T11:57:28;8.30;99.90
2611;DHT22;5612;51.134;17.058;2024-02-28T12:00:05;8.30;99.90
2611;DHT22;5612;51.134;17.058;2024-02-28T12:02:34;8.40;99.90
2611;DHT22;5612;51.134;17.058;2024-02-28T12:05:03;8.30;99.90
2611;DHT22;5612;51.134;17.058;2024-02-28T12:07:33;8.40;99.90
2611;DHT22;5612;51.134;17.058;2024-02-28T12:10:05;8.30;99.90
2611;DHT22;5612;51.134;17.058;2024-02-28T12:12:36;8.20;99.90
2611;DHT22;5612;51.134;17.058;2024-02-28T12:15:07;8.30;99.90
2611;DHT22;5612;51.134;17.058;2024-02-28T12:17:36;8.40;99.90
2611;DHT22;5612;51.134;17.058;2024-02-28T12:20:07;8.40;99.90
2611;DHT22;5612;51.134;17.058;2024-02-28T12:22:36;8.40;99.90
2611;DHT22;5612;51.134;17.058;2024-02-28T12:25:06;8.30;99.90
2611;DHT22;5612;51.134;17.058;2024-02-28T12:27:35;8.20;99.90
2611;DHT22;5612;51.134;17.058;2024-02-28T12:30:07;8.10;99.90
2611;DHT22;5612;51.134;17.058;2024-02-28T12:32:36;8.00;99.90
2611;DHT22;5612;51.134;17.058;2024-02-28T12:35:06;7.90;99.90
2611;DHT22;5612;51.134;17.058;2024-02-28T12:37:35;7.90;99.90
2611;DHT22;5612;51.134;17.058;2024-02-28T12:40:06;8.00;99.90
2611;DHT22;5612;51.134;17.058;2024-02-28T12:42:35;8.00;99.90
2611;DHT22;5612;51.134;17.058;2024-02-28T12:45:09;8.10;99.90
2611;DHT22;5612;51.134;17.058;2024-02-28T12:47:39;8.10;99.90
2611;DHT22;5612;51.134;17.058;2024-02-28T12:50:09;8.10;99.90
2611;DHT22;5612;51.134;17.058;2024-02-28T12:52:38;7.90;99.90
2611;DHT22;5612;51.134;17.058;2024-02-28T12:55:07;7.90;99.90
2611;DHT22;5612;51.134;17.058;2024-02-28T12:57:37;7.80;99.90
2611;DHT22;5612;51.134;17.058;2024-02-28T13:00:08;7.80;99.90
2611;DHT22;5612;51.134;17.058;2024-02-28T13:02:37;7.70;99.90
2611;DHT22;5612;51.134;17.058;2024-02-28T13:05:07;7.70;99.90
2611;DHT22;5612;51.134;17.058;2024-02-28T13:07:36;7.60;99.90
2611;DHT22;5612;51.134;17.058;2024-02-28T13:10:07;7.60;99.90
2611;DHT22;5612;51.134;17.058;2024-02-28T13:12:37;7.50;99.90
2611;DHT22;5612;51.134;17.058;2024-02-28T13:15:09;7.70;99.90
2611;DHT22;5612;51.134;17.058;2024-02-28T13:17:38;7.60;99.90
2611;DHT22;5612;51.134;17.058;2024-02-28T13:20:09;7.70;99.90
2611;DHT22;5612;51.134;17.058;2024-02-28T13:22:38;7.60;99.90
2611;DHT22;5612;51.134;17.058;2024-02-28T13:25:08;7.50;99.90
2611;DHT22;5612;51.134;17.058;2024-02-28T13:27:38;7.40;99.90
2611;DHT22;5612;51.134;17.058;2024-02-28T13:30:09;7.50;99.90
2611;DHT22;5612;51.134;17.058;2024-02-28T13:32:38;7.50;99.90
2611;DHT22;5612;51.134;17.058;2024-02-28T13:35:08;7.50;99.90
2611;DHT22;5612;51.134;17.058;2024-02-28T13:37:41;7.60;99.90
2611;DHT22;5612;51.134;17.058;2024-02-28T13:40:11;7.60;99.90
2611;DHT22;5612;51.134;17.058;2024-02-28T13:42:40;7.50;99.90
2611;DHT22;5612;51.134;17.058;2024-02-28T13:45:11;7.50;99.90
2611;DHT22;5612;51.134;17.058;2024-02-28T13:47:40;7.60;99.90
2611;DHT22;5612;51.134;17.058;2024-02-28T13:50:10;7.70;99.90
2611;DHT22;5612;51.134;17.058;2024-02-28T13:52:39;7.60;99.90
2611;DHT22;5612;51.134;17.058;2024-02-28T13:55:08;7.60;99.90
2611;DHT22;5612;51.134;17.058;2024-02-28T13:57:37;7.80;99.90
2611;DHT22;5612;51.134;17.058;2024-02-28T14:00:08;7.70;99.90
2611;DHT22;5612;51.134;17.058;2024-02-28T14:02:41;7.70;99.90
2611;DHT22;5612;51.134;17.058;2024-02-28T14:05:10;7.60;99.90
2611;DHT22;5612;51.134;17.058;2024-02-28T14:07:39;7.60;99.90
2611;DHT22;5612;51.134;17.058;2024-02-28T14:10:08;7.50;99.90
2611;DHT22;5612;51.134;17.058;2024-02-28T14:12:38;7.50;99.90
2611;DHT22;5612;51.134;17.058;2024-02-28T14:15:11;7.60;99.90
2611;DHT22;5612;51.134;17.058;2024-02-28T14:17:41;7.50;99.90
2611;DHT22;5612;51.134;17.058;2024-02-28T14:20:12;7.40;99.90
2611;DHT22;5612;51.134;17.058;2024-02-28T14:22:44;7.40;99.90
2611;DHT22;5612;51.134;17.058;2024-02-28T14:25:14;7.40;99.90
2611;DHT22;5612;51.134;17.058;2024-02-28T14:27:44;7.40;99.90
2611;DHT22;5612;51.134;17.058;2024-02-28T14:30:14;7.40;99.90
2611;DHT22;5612;51.134;17.058;2024-02-28T14:32:45;7.40;99.90
2611;DHT22;5612;51.134;17.058;2024-02-28T14:35:16;7.40;99.90
2611;DHT22;5612;51.134;17.058;2024-02-28T14:37:45;7.30;99.90
2611;DHT22;5612;51.134;17.058;2024-02-28T14:40:15;7.30;99.90
2611;DHT22;5612;51.134;17.058;2024-02-28T14:42:44;7.40;99.90
2611;DHT22;5612;51.134;17.058;2024-02-28T14:45:14;7.20;99.90
2611;DHT22;5612;51.134;17.058;2024-02-28T14:47:45;7.20;99.90
2611;DHT22;5612;51.134;17.058;2024-02-28T14:50:14;7.20;99.90
2611;DHT22;5612;51.134;17.058;2024-02-28T14:52:43;7.20;99.90
2611;DHT22;5612;51.134;17.058;2024-02-28T14:55:12;7.30;99.90
2611;DHT22;5612;51.134;17.058;2024-02-28T14:57:41;7.30;99.90
2611;DHT22;5612;51.134;17.058;2024-02-28T15:00:11;7.20;99.90
2611;DHT22;5612;51.134;17.058;2024-02-28T15:02:43;7.10;99.90
2611;DHT22;5612;51.134;17.058;2024-02-28T15:05:14;7.20;99.90
2611;DHT22;5612;51.134;17.058;2024-02-28T15:07:43;7.20;99.90
2611;DHT22;5612;51.134;17.058;2024-02-28T15:10:12;7.20;99.90
2611;DHT22;5612;51.134;17.058;2024-02-28T15:12:42;7.20;99.90
2611;DHT22;5612;51.134;17.058;2024-02-28T15:15:13;7.20;99.90
2611;DHT22;5612;51.134;17.058;2024-02-28T15:17:42;7.10;99.90
2611;DHT22;5612;51.134;17.058;2024-02-28T15:20:13;7.10;99.90
2611;DHT22;5612;51.134;17.058;2024-02-28T15:22:45;7.10;99.90
2611;DHT22;5612;51.134;17.058;2024-02-28T15:25:14;7.00;99.90
2611;DHT22;5612;51.134;17.058;2024-02-28T15:27:44;7.00;99.90
2611;DHT22;5612;51.134;17.058;2024-02-28T15:30:13;7.00;99.90
2611;DHT22;5612;51.134;17.058;2024-02-28T15:32:43;7.00;99.90
2611;DHT22;5612;51.134;17.058;2024-02-28T15:35:14;7.00;99.90
2611;DHT22;5612;51.134;17.058;2024-02-28T15:37:43;7.00;99.90
2611;DHT22;5612;51.134;17.058;2024-02-28T15:40:12;6.90;99.90
2611;DHT22;5612;51.134;17.058;2024-02-28T15:42:41;7.00;99.90
2611;DHT22;5612;51.134;17.058;2024-02-28T15:45:10;6.90;99.90
2611;DHT22;5612;51.134;17.058;2024-02-28T15:47:39;7.00;99.90
2611;DHT22;5612;51.134;17.058;2024-02-28T15:50:10;7.00;99.90
2611;DHT22;5612;51.134;17.058;2024-02-28T15:52:40;6.90;99.90
2611;DHT22;5612;51.134;17.058;2024-02-28T15:55:10;6.90;99.90
2611;DHT22;5612;51.134;17.058;2024-02-28T15:57:40;6.70;99.90
2611;DHT22;5612;51.134;17.058;2024-02-28T16:00:10;6.80;99.90
2611;DHT22;5612;51.134;17.058;2024-02-28T16:02:39;6.90;99.90
2611;DHT22;5612;51.134;17.058;2024-02-28T16:05:08;6.80;99.90
2611;DHT22;5612;51.134;17.058;2024-02-28T16:07:37;6.80;99.90
2611;DHT22;5612;51.134;17.058;2024-02-28T16:10:08;6.80;99.90
2611;DHT22;5612;51.134;17.058;2024-02-28T16:12:38;6.90;99.90
2611;DHT22;5612;51.134;17.058;2024-02-28T16:15:07;6.90;99.90
2611;DHT22;5612;51.134;17.058;2024-02-28T16:17:38;7.00;99.90